Time;durP1;ratioP1;P1;durP2;ratioP2;P2;SDS_P1;SDS_P2;PMS_P1;PMS_P2;Temp;Humidity;BMP_temperature;BMP_pressure;BME280_temperature;BME280_humidity;BME280_pressure;Samples;Min_cycle;Max_cycle;Signal;HPM_P1;HPM_P2
2020/12/11 00:00:22;;;;;;;43.35;19.87;;;;;;;-0.34;82.98;100235.06;1706086;82;21127;-77
2020/12/11 00:02:48;;;;;;;46.35;20.35;;;;;;;-0.36;82.96;100232.49;1717657;82;21547;-77
2020/12/11 00:05:15;;;;;;;40.43;18.30;;;;;;;-0.35;83.05;100230.39;1704906;82;21773;-77
2020/12/11 00:07:42;;;;;;;49.35;20.62;;;;;;;-0.34;83.05;100227.44;1701797;82;21119;-77
2020/12/11 00:10:12;;;;;;;39.88;19.62;;;;;;;-0.32;83.05;100230.87;1714903;81;21537;-77
2020/12/11 00:12:39;;;;;;;48.52;22.27;;;;;;;-0.32;83.05;100225.80;1710586;82;21138;-77
2020/12/11 00:15:07;;;;;;;43.68;19.82;;;;;;;-0.29;83.06;100223.73;1708060;82;21123;-77
2020/12/11 00:17:35;;;;;;;44.35;20.62;;;;;;;-0.28;83.06;100221.23;1704944;82;21931;-77
2020/12/11 00:20:01;;;;;;;47.23;20.90;;;;;;;-0.26;83.06;100226.34;1702405;81;21147;-77
2020/12/11 00:22:28;;;;;;;43.70;20.80;;;;;;;-0.26;83.05;100224.66;1701166;83;21126;-78
2020/12/11 00:24:54;;;;;;;45.85;20.57;;;;;;;-0.24;83.04;100231.90;1708414;83;21601;-77
2020/12/11 00:27:20;;;;;;;42.33;21.17;;;;;;;-0.24;83.03;100229.36;1704891;82;21115;-77
2020/12/11 00:29:46;;;;;;;44.93;20.85;;;;;;;-0.26;82.95;100225.92;1706111;81;21191;-78
2020/12/11 00:32:13;;;;;;;37.98;21.05;;;;;;;-0.25;83.00;100226.38;1719577;82;21119;-78
2020/12/11 00:34:39;;;;;;;48.17;20.90;;;;;;;-0.24;83.02;100225.55;1720950;83;21544;-78
2020/12/11 00:37:06;;;;;;;41.90;20.15;;;;;;;-0.23;83.04;100230.22;1704003;82;21119;-77
2020/12/11 00:39:33;;;;;;;45.38;21.62;;;;;;;-0.23;83.04;100233.61;1712903;82;21106;-77
2020/12/11 00:41:59;;;;;;;43.00;20.68;;;;;;;-0.20;83.08;100246.38;1714952;82;21258;-78
2020/12/11 00:44:26;;;;;;;44.63;21.62;;;;;;;-0.18;83.08;100237.52;1706312;81;27345;-77
2020/12/11 00:46:52;;;;;;;45.55;20.77;;;;;;;-0.17;83.05;100234.16;1705963;83;21434;-77
2020/12/11 00:49:18;;;;;;;42.58;20.48;;;;;;;-0.17;83.03;100236.28;1708176;81;21517;-77
2020/12/11 00:51:44;;;;;;;46.25;21.48;;;;;;;-0.16;83.02;100232.92;1691852;81;21183;-77
2020/12/11 00:54:11;;;;;;;49.33;21.90;;;;;;;-0.15;83.02;100234.64;1707324;81;21834;-77
2020/12/11 00:56:37;;;;;;;43.87;21.90;;;;;;;-0.12;83.05;100235.11;1698171;83;21148;-77
2020/12/11 00:59:03;;;;;;;46.08;21.12;;;;;;;-0.10;83.04;100234.73;1702713;83;21119;-77
2020/12/11 01:01:29;;;;;;;46.18;20.52;;;;;;;-0.09;83.05;100230.95;1701424;82;21139;-77
2020/12/11 01:03:55;;;;;;;48.23;22.02;;;;;;;-0.07;83.07;100236.92;1709200;81;21167;-77
2020/12/11 01:06:22;;;;;;;35.83;16.23;;;;;;;-0.05;83.04;100233.14;1711637;83;21182;-77
2020/12/11 01:08:48;;;;;;;30.12;15.20;;;;;;;-0.04;83.02;100230.63;1701635;83;21150;-77
2020/12/11 01:11:14;;;;;;;48.63;21.70;;;;;;;-0.03;83.02;100231.08;1709141;82;21155;-77
2020/12/11 01:13:40;;;;;;;44.27;20.95;;;;;;;-0.02;83.05;100230.25;1691860;82;21143;-77
2020/12/11 01:16:07;;;;;;;46.05;22.10;;;;;;;-0.01;83.07;100230.70;1714998;82;21118;-77
2020/12/11 01:18:33;;;;;;;49.48;21.27;;;;;;;0.02;83.05;100226.47;1675080;84;21453;-77
2020/12/11 01:20:59;;;;;;;48.75;22.22;;;;;;;0.04;83.07;100228.22;1656044;84;21461;-78
2020/12/11 01:23:25;;;;;;;48.17;21.82;;;;;;;0.05;83.07;100221.45;1665769;84;21098;-78
2020/12/11 01:25:52;;;;;;;51.35;23.35;;;;;;;0.05;83.04;100212.55;1661961;84;21127;-78
2020/12/11 01:28:18;;;;;;;47.27;22.05;;;;;;;0.05;83.02;100210.87;1671590;84;21142;-78
2020/12/11 01:30:44;;;;;;;47.27;22.70;;;;;;;0.06;83.06;100201.14;1678895;84;21545;-78
2020/12/11 01:33:11;;;;;;;41.63;22.30;;;;;;;0.08;83.04;100213.89;1662393;84;21154;-78
2020/12/11 01:35:37;;;;;;;51.48;22.48;;;;;;;0.08;83.05;100207.53;1675865;84;21136;-77
2020/12/11 01:38:03;;;;;;;47.03;22.77;;;;;;;0.09;83.07;100209.25;1682007;84;21109;-77
2020/12/11 01:40:36;;;;;;;45.48;21.97;;;;;;;0.08;83.07;100203.30;1651524;84;21143;-77
2020/12/11 01:43:03;;;;;;;47.95;23.35;;;;;;;0.10;83.09;100203.34;1673345;83;21170;-78
2020/12/11 01:45:29;;;;;;;50.30;22.27;;;;;;;0.11;83.06;100207.59;1703188;82;21146;-78
2020/12/11 01:47:56;;;;;;;51.35;24.92;;;;;;;0.11;83.06;100203.78;1702798;83;21165;-78
2020/12/11 01:50:22;;;;;;;48.60;23.83;;;;;;;0.11;83.08;100209.72;1698394;83;21572;-78
2020/12/11 01:52:50;;;;;;;53.40;24.75;;;;;;;0.11;83.10;100208.86;1709487;83;21545;-77
2020/12/11 01:55:17;;;;;;;60.15;24.90;;;;;;;0.10;83.10;100205.47;1709501;82;21273;-76
2020/12/11 01:58:03;;;;;;;52.93;24.23;;;;;;;0.09;83.07;100200.34;1696626;84;21625;-76
2020/12/11 02:00:30;;;;;;;52.85;24.40;;;;;;;0.09;83.12;100191.45;1679325;83;21225;-78
2020/12/11 02:03:02;;;;;;;;;;;;;;;0.08;83.13;100189.33;1697594;83;21201;-77
2020/12/11 02:05:28;;;;;;;53.20;22.85;;;;;;;0.10;83.15;100185.54;1677023;83;20296;-76
2020/12/11 02:07:54;;;;;;;61.77;26.12;;;;;;;0.07;83.11;100186.34;1689595;83;21223;-76
2020/12/11 02:10:20;;;;;;;63.30;25.85;;;;;;;0.06;83.13;100190.98;1680279;83;21241;-77
2020/12/11 02:12:47;;;;;;;65.57;26.48;;;;;;;0.07;83.16;100193.96;1696575;83;21617;-77
2020/12/11 02:15:13;;;;;;;58.52;23.85;;;;;;;0.08;83.18;100188.47;1689273;83;21200;-77
2020/12/11 02:17:39;;;;;;;55.05;25.00;;;;;;;0.08;83.15;100185.52;1685456;83;21249;-77
2020/12/11 02:20:05;;;;;;;58.87;25.90;;;;;;;0.07;83.19;100181.25;1709410;83;21738;-77
2020/12/11 02:22:32;;;;;;;60.17;25.70;;;;;;;0.07;83.18;100179.98;1693228;83;21197;-77
2020/12/11 02:24:58;;;;;;;54.20;24.57;;;;;;;0.07;83.19;100187.61;1703725;83;21461;-77
2020/12/11 02:27:24;;;;;;;56.85;24.67;;;;;;;0.06;83.19;100187.16;1676016;83;21205;-77
2020/12/11 02:29:50;;;;;;;58.25;25.23;;;;;;;0.07;83.19;100180.40;1708067;83;21223;-77
2020/12/11 02:32:16;;;;;;;60.73;26.48;;;;;;;0.07;83.20;100183.80;1699124;83;21292;-77
2020/12/11 02:34:45;;;;;;;58.35;26.17;;;;;;;0.07;83.20;100181.67;1680579;83;21209;-77
2020/12/11 02:37:13;;;;;;;60.45;25.17;;;;;;;0.07;83.20;100180.40;1702310;83;21178;-77
2020/12/11 02:39:39;;;;;;;63.75;27.20;;;;;;;0.08;83.21;100177.03;1700489;82;21121;-77
2020/12/11 02:42:06;;;;;;;;;;;;;;;0.08;83.25;100176.61;1645538;84;21178;-78
2020/12/11 02:44:33;;;;;;;65.03;25.72;;;;;;;0.08;83.27;100172.80;1696993;83;21792;-77
2020/12/11 02:46:59;;;;;;;;;;;;;;;0.09;83.26;100177.47;1708112;83;21161;-77
2020/12/11 02:49:25;;;;;;;67.12;26.27;;;;;;;0.10;83.27;100170.29;1696918;83;20205;-77
2020/12/11 02:51:51;;;;;;;61.88;25.85;;;;;;;0.10;83.28;100166.47;1697637;83;21247;-77
2020/12/11 02:54:17;;;;;;;64.58;27.58;;;;;;;0.10;83.24;100164.79;1695047;83;21165;-77
2020/12/11 02:56:44;;;;;;;69.32;26.93;;;;;;;0.08;83.24;100161.36;1697483;83;21129;-77
2020/12/11 02:59:10;;;;;;;60.30;26.77;;;;;;;0.09;83.26;100160.95;1708174;83;21153;-77
2020/12/11 03:01:36;;;;;;;63.15;25.97;;;;;;;0.08;83.28;100161.78;1699462;83;21568;-77
2020/12/11 03:04:02;;;;;;;62.60;26.57;;;;;;;0.08;83.25;100153.73;1680751;83;21093;-77
2020/12/11 03:06:34;;;;;;;62.10;26.50;;;;;;;0.08;83.26;100161.78;1702782;83;21094;-77
2020/12/11 03:08:59;;;;;;;64.17;26.93;;;;;;;0.08;83.16;100160.51;1691511;83;21157;-77
2020/12/11 03:11:25;;;;;;;64.50;26.75;;;;;;;0.07;83.25;100161.33;1689928;83;21146;-77
2020/12/11 03:13:51;;;;;;;;;;;;;;;0.06;83.23;100158.34;1678889;84;21142;-77
2020/12/11 03:16:18;;;;;;;72.62;27.30;;;;;;;0.07;83.28;100166.42;1690205;83;20260;-77
2020/12/11 03:18:45;;;;;;;73.28;29.75;;;;;;;0.07;83.27;100160.92;1700014;83;21105;-77
2020/12/11 03:21:11;;;;;;;60.00;27.00;;;;;;;0.06;83.28;100160.48;1702099;83;21507;-77
2020/12/11 03:23:38;;;;;;;66.42;27.82;;;;;;;0.06;83.28;100160.89;1692490;83;21578;-77
2020/12/11 03:26:04;;;;;;;67.60;27.35;;;;;;;0.05;83.27;100160.03;1691239;83;23815;-77
2020/12/11 03:28:32;;;;;;;68.07;27.27;;;;;;;0.05;83.24;100159.17;1708551;83;21121;-77
2020/12/11 03:30:59;;;;;;;71.72;29.12;;;;;;;0.04;83.27;100160.00;1691343;83;21130;-77
2020/12/11 03:33:26;;;;;;;73.22;29.50;;;;;;;0.06;83.31;100158.34;1671953;83;21344;-77
2020/12/11 03:35:52;;;;;;;;;;;;;;;0.06;83.30;100161.75;1700764;83;21149;-77
2020/12/11 03:38:18;;;;;;;67.82;26.00;;;;;;;0.06;83.32;100160.89;1689635;82;20250;-77
2020/12/11 03:40:45;;;;;;;79.90;29.77;;;;;;;0.05;83.28;100157.91;1693478;83;21130;-77
2020/12/11 03:43:11;;;;;;;70.40;28.05;;;;;;;0.05;83.33;100153.68;1688101;83;21399;-77
2020/12/11 03:45:37;;;;;;;79.27;29.92;;;;;;;0.06;83.34;100154.53;1682872;83;22276;-77
2020/12/11 03:48:04;;;;;;;76.17;29.45;;;;;;;0.07;83.33;100153.70;1685918;83;21150;-77
2020/12/11 03:50:30;;;;;;;70.70;28.02;;;;;;;0.06;83.31;100155.39;1700647;83;21121;-77
2020/12/11 03:52:56;;;;;;;74.47;28.00;;;;;;;0.04;83.32;100158.31;1709395;83;21200;-77
2020/12/11 03:55:22;;;;;;;73.50;28.70;;;;;;;0.04;83.32;100151.97;1693533;83;21568;-77
2020/12/11 03:57:49;;;;;;;74.67;29.85;;;;;;;0.07;83.36;100147.35;1690181;83;21754;-77
2020/12/11 04:00:15;;;;;;;78.78;29.30;;;;;;;0.07;83.34;100143.55;1710390;83;21749;-77
2020/12/11 04:02:41;;;;;;;78.28;31.15;;;;;;;0.08;83.33;100145.25;1702976;83;21583;-77
2020/12/11 04:05:07;;;;;;;75.20;29.63;;;;;;;0.08;83.32;100145.25;1706570;83;21240;-77
2020/12/11 04:07:34;;;;;;;71.45;30.05;;;;;;;0.07;83.33;100143.13;1701236;83;21226;-77
2020/12/11 04:10:00;;;;;;;85.70;30.32;;;;;;;0.07;83.33;100146.08;1692130;82;21665;-77
2020/12/11 04:12:26;;;;;;;;;;;;;;;0.09;83.38;100149.09;1706306;83;21477;-77
2020/12/11 04:14:52;;;;;;;;;;;;;;;0.11;83.40;100149.13;1688925;83;20262;-77
2020/12/11 04:17:19;;;;;;;79.45;28.57;;;;;;;0.11;83.37;100144.90;1691191;83;20304;-77
2020/12/11 04:19:45;;;;;;;85.70;31.57;;;;;;;0.10;83.31;100141.05;1695707;83;21190;-77
2020/12/11 04:22:11;;;;;;;66.72;24.02;;;;;;;0.09;83.34;100138.93;1701839;83;21604;-77
2020/12/11 04:24:37;;;;;;;78.17;30.62;;;;;;;0.08;83.36;100138.48;1682459;83;21777;-77
2020/12/11 04:27:04;;;;;;;86.37;30.92;;;;;;;0.08;83.36;100141.03;1694026;83;21224;-77
2020/12/11 04:29:31;;;;;;;91.17;32.13;;;;;;;0.08;83.34;100137.62;1701475;83;38050;-77
2020/12/11 04:31:59;;;;;;;85.50;31.33;;;;;;;0.08;83.35;100138.91;1683377;83;21222;-77
2020/12/11 04:34:25;;;;;;;75.52;31.00;;;;;;;0.07;83.36;100141.86;1681815;83;21801;-77
2020/12/11 04:36:53;;;;;;;;;;;;;;;0.08;83.40;100147.38;1705861;83;21230;-77
2020/12/11 04:39:20;;;;;;;83.58;29.42;;;;;;;0.07;83.37;100135.91;1688516;82;20311;-77
2020/12/11 04:41:46;;;;;;;92.75;33.58;;;;;;;0.08;83.40;100135.94;1691453;83;21213;-77
2020/12/11 04:44:13;;;;;;;89.75;33.00;;;;;;;0.09;83.40;100143.16;1673113;83;21206;-77
2020/12/11 04:46:40;;;;;;;100.25;35.25;;;;;;;0.09;83.39;100138.93;1684241;83;21731;-77
2020/12/11 04:49:07;;;;;;;89.83;33.63;;;;;;;0.10;83.36;100141.05;1700711;83;21121;-77
2020/12/11 04:51:34;;;;;;;81.22;33.50;;;;;;;0.09;83.34;100135.53;1702826;83;21552;-77
2020/12/11 04:54:03;;;;;;;92.70;32.88;;;;;;;0.09;83.39;100135.53;1705487;83;21109;-77
2020/12/11 04:56:31;;;;;;;93.10;34.43;;;;;;;0.11;83.40;100131.33;1685317;83;21130;-77
2020/12/11 04:58:58;;;;;;;85.53;33.10;;;;;;;0.12;83.41;100133.05;1701293;83;21190;-77
2020/12/11 05:01:32;;;;;;;82.42;33.33;;;;;;;0.13;83.40;100125.86;1704575;83;21122;-77
2020/12/11 05:04:01;;;;;;;79.15;31.70;;;;;;;0.13;83.39;100125.45;1707755;82;21139;-77
2020/12/11 05:06:27;;;;;;;84.42;32.65;;;;;;;0.10;83.37;100122.84;1704099;83;21150;-77
2020/12/11 05:09:12;;;;;;;;;;;;;;;0.09;83.37;100122.41;1709881;83;21133;-77
2020/12/11 05:11:44;;;;;;;75.10;29.87;;;;;;;0.10;83.42;100121.58;1694355;83;21406;-77
2020/12/11 05:14:25;;;;;;;76.33;29.63;;;;;;;0.10;83.41;100121.58;1687359;84;21168;-77
2020/12/11 05:17:06;;;;;;;77.22;30.92;;;;;;;0.09;83.41;100122.41;1697649;84;21156;-77
2020/12/11 05:19:51;;;;;;;72.85;32.33;;;;;;;0.10;83.42;100120.31;1692305;83;21134;-77
2020/12/11 05:22:18;;;;;;;78.02;34.10;;;;;;;0.11;83.40;100119.89;1696936;83;21139;-77
2020/12/11 05:24:53;;;;;;;82.08;33.67;;;;;;;0.12;83.42;100124.15;1688645;84;21589;-77
2020/12/11 05:27:45;;;;;;;78.42;33.48;;;;;;;0.11;83.40;100120.75;1689328;84;21162;-77
2020/12/11 05:30:19;;;;;;;86.47;34.75;;;;;;;0.12;83.43;100122.88;1686419;83;21129;-77
2020/12/11 05:32:54;;;;;;;97.12;37.50;;;;;;;0.11;83.41;100126.25;1689026;83;21172;-77
2020/12/11 05:35:25;;;;;;;99.03;38.53;;;;;;;0.08;83.38;100124.50;1695556;84;21150;-77
2020/12/11 05:38:02;;;;;;;103.67;40.45;;;;;;;0.08;83.45;100123.23;1690469;83;21889;-77
2020/12/11 05:40:38;;;;;;;101.02;40.10;;;;;;;0.10;83.47;100116.50;1690411;83;21729;-77
2020/12/11 05:43:21;;;;;;;67.65;24.67;;;;;;;0.12;83.49;100116.52;1694125;83;21158;-77
2020/12/11 05:45:58;;;;;;;82.20;32.85;;;;;;;0.11;83.42;100119.48;1658171;85;21535;-77
2020/12/11 05:48:28;;;;;;;75.57;30.10;;;;;;;0.09;83.32;100110.11;1666117;84;21115;-77
2020/12/11 05:50:54;;;;;;;85.28;31.62;;;;;;;0.07;83.40;100109.23;1663632;84;21517;-77
2020/12/11 05:53:21;;;;;;;77.35;30.10;;;;;;;0.05;83.39;100101.58;1667696;84;21789;-77
2020/12/11 05:55:48;;;;;;;87.60;28.85;;;;;;;0.04;83.42;100103.67;1667839;85;21158;-77
2020/12/11 05:58:16;;;;;;;79.12;29.07;;;;;;;0.03;83.37;100102.38;1665836;85;21134;-77
2020/12/11 06:00:42;;;;;;;74.95;28.00;;;;;;;0.02;83.45;100096.84;1661917;84;21107;-77
2020/12/11 06:03:09;;;;;;;92.57;31.05;;;;;;;0.01;83.47;100098.53;1665127;84;21165;-75
2020/12/11 06:05:39;;;;;;;;;;;;;;;0.02;83.49;100100.66;1664505;84;21117;-75
2020/12/11 06:08:12;;;;;;;89.77;30.30;;;;;;;0.03;83.53;100101.96;1667384;84;20257;-75
2020/12/11 06:10:40;;;;;;;85.22;29.50;;;;;;;0.01;83.48;100108.70;1670753;84;21127;-75
2020/12/11 06:13:07;;;;;;;78.35;28.87;;;;;;;0.00;83.53;100112.11;1670234;84;21134;-75
2020/12/11 06:15:45;;;;;;;85.22;29.30;;;;;;;0.00;83.54;100109.11;1660221;84;21322;-75
2020/12/11 06:18:25;;;;;;;89.62;29.95;;;;;;;0.03;83.54;100115.08;1667521;85;21159;-75
2020/12/11 06:20:55;;;;;;;89.37;29.30;;;;;;;0.04;83.56;100114.25;1660781;84;21635;-74
2020/12/11 06:23:30;;;;;;;92.90;28.55;;;;;;;0.06;83.58;100115.14;1644066;85;21158;-74
2020/12/11 06:25:58;;;;;;;85.55;29.92;;;;;;;0.06;83.59;100114.73;1667541;85;22068;-74
2020/12/11 06:28:45;;;;;;;105.30;34.08;;;;;;;0.06;83.56;100111.33;1657366;84;21801;-74
2020/12/11 06:31:15;;;;;;;108.10;31.60;;;;;;;0.05;83.54;100110.47;1663513;84;21142;-75
2020/12/11 06:33:44;;;;;;;102.80;33.63;;;;;;;0.02;83.56;100101.52;1667165;84;21160;-75
2020/12/11 06:36:11;;;;;;;88.15;29.92;;;;;;;0.02;83.56;100106.60;1659068;84;21177;-75
2020/12/11 06:38:57;;;;;;;98.30;31.57;;;;;;;0.03;83.57;100107.05;1665294;85;21139;-74
2020/12/11 06:41:37;;;;;;;99.15;29.95;;;;;;;0.03;83.61;100107.05;1664540;84;21183;-76
2020/12/11 06:44:14;;;;;;;96.45;32.35;;;;;;;0.06;83.64;100106.24;1664673;84;21173;-75
2020/12/11 06:46:40;;;;;;;98.95;31.60;;;;;;;0.09;83.66;100101.22;1653088;85;21154;-75
2020/12/11 06:49:16;;;;;;;95.55;31.57;;;;;;;0.10;83.59;100100.39;1653874;85;21149;-75
2020/12/11 06:51:48;;;;;;;95.10;32.25;;;;;;;0.11;83.62;100098.29;1651456;85;21141;-75
2020/12/11 06:54:26;;;;;;;95.77;32.70;;;;;;;0.12;83.60;100097.45;1653955;85;21258;-75
2020/12/11 06:56:55;;;;;;;97.17;31.17;;;;;;;0.13;83.58;100100.44;1649896;85;21177;-75
2020/12/11 06:59:28;;;;;;;91.80;31.52;;;;;;;0.14;83.63;100096.66;1653682;85;21184;-75
2020/12/11 07:02:08;;;;;;;96.82;31.07;;;;;;;0.15;83.62;100103.45;1652850;85;21652;-75
2020/12/11 07:04:44;;;;;;;90.97;29.98;;;;;;;0.17;83.63;100100.94;1651626;85;21163;-75
2020/12/11 07:07:12;;;;;;;102.75;35.43;;;;;;;0.18;83.61;100106.47;1653331;85;21237;-75
2020/12/11 07:09:43;;;;;;;90.85;32.50;;;;;;;0.16;83.56;100101.35;1651343;85;21172;-75
2020/12/11 07:12:11;;;;;;;100.10;35.20;;;;;;;0.17;83.62;100103.06;1652463;85;21183;-75
2020/12/11 07:14:37;;;;;;;93.62;31.27;;;;;;;0.17;83.60;100095.44;1653536;85;21169;-76
2020/12/11 07:17:04;;;;;;;88.80;31.85;;;;;;;0.17;83.61;100097.98;1661973;84;21157;-76
2020/12/11 07:19:39;;;;;;;101.47;34.92;;;;;;;0.16;83.61;100097.95;1683590;84;21271;-77
2020/12/11 07:22:06;;;;;;;104.32;35.88;;;;;;;0.15;83.56;100099.64;1685912;82;21155;-75
2020/12/11 07:24:33;;;;;;;108.67;36.75;;;;;;;0.15;83.66;100094.55;1689166;84;21143;-75
2020/12/11 07:27:04;;;;;;;94.28;33.33;;;;;;;0.16;83.61;100094.14;1678172;83;21154;-75
2020/12/11 07:29:30;;;;;;;106.00;36.42;;;;;;;0.14;83.66;100090.30;1684011;84;21129;-75
2020/12/11 07:31:57;;;;;;;102.67;34.95;;;;;;;0.15;83.62;100098.78;1687244;84;21584;-75
2020/12/11 07:34:28;;;;;;;105.70;35.45;;;;;;;0.15;83.67;100091.16;1679616;84;21724;-75
2020/12/11 07:36:58;;;;;;;103.32;37.03;;;;;;;0.15;83.68;100094.55;1685407;84;21141;-75
2020/12/11 07:39:28;;;;;;;96.53;34.40;;;;;;;0.15;83.68;100100.91;1682401;84;21656;-75
2020/12/11 07:41:56;;;;;;;92.10;34.03;;;;;;;0.16;83.71;100098.81;1689217;83;21136;-75
2020/12/11 07:44:28;;;;;;;96.32;33.80;;;;;;;0.16;83.68;100100.08;1689479;84;21461;-75
2020/12/11 07:46:57;;;;;;;97.70;36.88;;;;;;;0.16;83.69;100093.73;1670283;84;21137;-75
2020/12/11 07:49:41;;;;;;;100.35;36.03;;;;;;;0.15;83.66;100088.20;1663282;84;21218;-75
2020/12/11 07:52:08;;;;;;;96.57;34.08;;;;;;;0.16;83.67;100094.14;1652801;84;21210;-75
2020/12/11 07:54:43;;;;;;;106.20;38.73;;;;;;;0.16;83.70;100091.60;1666449;84;21138;-75
2020/12/11 07:57:15;;;;;;;108.70;39.20;;;;;;;0.18;83.75;100090.80;1663365;84;21556;-75
2020/12/11 07:59:44;;;;;;;95.87;35.52;;;;;;;0.20;83.72;100092.09;1663937;84;21372;-75
2020/12/11 08:02:13;;;;;;;94.77;36.23;;;;;;;0.21;83.68;100081.09;1665744;85;21998;-75
2020/12/11 08:04:39;;;;;;;99.83;37.98;;;;;;;0.21;83.69;100087.03;1663827;84;22127;-75
2020/12/11 08:07:05;;;;;;;88.70;34.05;;;;;;;0.22;83.65;100091.70;1647493;86;21136;-75
2020/12/11 08:09:34;;;;;;;93.37;35.23;;;;;;;0.21;83.65;100095.08;1641316;86;21170;-75
2020/12/11 08:12:19;;;;;;;88.07;37.17;;;;;;;0.22;83.68;100088.75;1651034;84;21196;-76
2020/12/11 08:14:45;;;;;;;92.57;36.53;;;;;;;0.24;83.67;100085.82;1664856;84;21206;-76
2020/12/11 08:17:15;;;;;;;94.77;35.35;;;;;;;0.25;83.67;100086.26;1663843;84;21186;-77
2020/12/11 08:19:43;;;;;;;87.10;34.70;;;;;;;0.22;83.63;100076.45;1660088;84;21134;-76
2020/12/11 08:22:16;;;;;;;91.12;36.05;;;;;;;0.27;83.63;100083.74;1662756;84;21278;-75
2020/12/11 08:24:44;;;;;;;77.45;34.73;;;;;;;0.28;83.61;100081.23;1663566;84;21146;-75
2020/12/11 08:27:25;;;;;;;88.45;37.60;;;;;;;0.27;83.62;100079.52;1649109;84;21130;-75
2020/12/11 08:30:09;;;;;;;89.28;36.68;;;;;;;0.29;83.63;100073.19;1667518;85;21139;-75
2020/12/11 08:32:34;;;;;;;79.12;34.43;;;;;;;0.31;83.64;100080.00;1645342;85;21424;-75
2020/12/11 08:35:00;;;;;;;97.85;36.98;;;;;;;0.33;83.67;100082.16;1667424;84;22167;-75
2020/12/11 08:37:26;;;;;;;72.87;27.82;;;;;;;0.36;83.67;100080.08;1646949;86;21131;-76
2020/12/11 08:40:04;;;;;;;79.72;34.92;;;;;;;0.39;83.65;100083.09;1663024;84;21115;-75
2020/12/11 08:42:41;;;;;;;91.17;38.42;;;;;;;0.40;83.65;100073.36;1662463;84;21132;-76
2020/12/11 08:45:05;;;;;;;89.60;36.90;;;;;;;0.42;83.59;100085.69;1664306;84;21121;-76
2020/12/11 08:50:19;;;;;;;90.07;35.85;;;;;;;0.43;83.56;100083.17;1665404;84;21024;-75
2020/12/11 08:52:39;;;;;;;90.00;37.13;;;;;;;0.45;83.62;100076.84;1666172;84;21215;-75
2020/12/11 08:55:05;;;;;;;90.87;37.83;;;;;;;0.44;83.55;100068.35;1667619;84;21155;-75
2020/12/11 08:57:33;;;;;;;94.40;38.95;;;;;;;0.45;83.62;100075.15;1662769;85;21587;-77
2020/12/11 08:59:59;;;;;;;94.65;39.58;;;;;;;0.47;83.63;100072.62;1660638;84;21243;-76
2020/12/11 09:02:26;;;;;;;88.85;37.38;;;;;;;0.47;83.59;100073.91;1664328;84;21214;-76
2020/12/11 09:04:53;;;;;;;84.40;37.25;;;;;;;0.48;83.63;100082.83;1666839;86;21572;-76
2020/12/11 09:07:19;;;;;;;86.32;37.95;;;;;;;0.51;83.68;100073.97;1656242;84;21238;-77
2020/12/11 09:09:45;;;;;;;99.25;38.88;;;;;;;0.53;83.66;100076.09;1652914;85;21477;-78
2020/12/11 09:12:12;;;;;;;74.72;30.45;;;;;;;0.55;83.60;100071.03;1664242;84;21390;-75
2020/12/11 09:14:38;;;;;;;86.12;37.80;;;;;;;0.57;83.62;100069.37;1664486;84;21278;-76
2020/12/11 09:17:04;;;;;;;97.60;39.05;;;;;;;0.58;83.60;100068.13;1665801;84;21698;-76
2020/12/11 09:19:30;;;;;;;90.55;39.08;;;;;;;0.59;83.57;100068.56;1664125;85;21250;-76
2020/12/11 09:22:00;;;;;;;102.00;39.65;;;;;;;0.59;83.54;100063.47;1653865;84;21210;-76
2020/12/11 09:24:25;;;;;;;98.55;40.05;;;;;;;0.60;83.56;100052.88;1650370;84;21271;-77
2020/12/11 09:26:51;;;;;;;88.05;37.85;;;;;;;0.59;83.54;100057.11;1649745;84;21254;-76
2020/12/11 09:31:58;;;;;;;85.47;38.35;;;;;;;0.58;83.53;100059.22;1657120;84;21211;-76
2020/12/11 09:34:24;;;;;;;90.05;39.83;;;;;;;0.59;83.53;100059.66;1658290;84;21122;-76
2020/12/11 09:36:51;;;;;;;93.97;38.10;;;;;;;0.60;83.55;100052.88;1664822;84;21584;-76
2020/12/11 09:39:18;;;;;;;;;;;;;;;0.62;83.57;100046.12;1661121;84;21174;-76
2020/12/11 09:41:56;;;;;;;;;;;;;;;0.62;83.56;100038.08;1663016;84;20293;-76
2020/12/11 09:50:00;;;;;;;89.25;38.50;;;;;;;0.65;83.52;100027.95;1659016;84;21163;-76
2020/12/11 09:54:37;;;;;;;87.22;38.48;;;;;;;0.65;83.38;100025.41;1649762;84;21225;-76
2020/12/11 09:57:04;;;;;;;88.97;37.88;;;;;;;0.63;83.41;100029.61;1646544;84;22160;-76
2020/12/11 09:59:46;;;;;;;85.20;37.80;;;;;;;0.63;83.38;100028.76;1654347;84;21733;-76
2020/12/11 10:04:49;;;;;;;80.47;35.70;;;;;;;0.60;83.39;100018.53;1665095;84;21229;-77
2020/12/11 10:07:16;;;;;;;85.15;37.98;;;;;;;0.63;83.43;100017.31;1666253;84;21201;-77
2020/12/11 10:09:42;;;;;;;79.90;35.88;;;;;;;0.62;83.37;100019.00;1668327;84;21559;-77
2020/12/11 10:12:10;;;;;;;75.00;35.73;;;;;;;0.63;83.40;100017.31;1662926;84;21225;-77
2020/12/11 10:14:45;;;;;;;83.37;36.25;;;;;;;0.64;83.33;100019.02;1657009;85;21183;-77
2020/12/11 10:17:10;;;;;;;77.25;36.15;;;;;;;0.63;83.36;100015.62;1659437;84;21223;-77
2020/12/11 10:19:37;;;;;;;85.20;38.17;;;;;;;0.64;83.33;100012.24;1665702;84;21218;-77
2020/12/11 10:22:05;;;;;;;86.47;36.75;;;;;;;0.66;83.36;100012.27;1659161;84;21237;-77
2020/12/11 10:24:31;;;;;;;69.72;35.52;;;;;;;0.66;83.27;100007.17;1654121;84;21524;-77
2020/12/11 10:26:57;;;;;;;93.03;36.48;;;;;;;0.65;83.26;100006.73;1665543;84;21356;-77
2020/12/11 10:29:23;;;;;;;78.87;35.52;;;;;;;0.67;83.31;100006.34;1663344;84;21218;-77
2020/12/11 10:31:50;;;;;;;73.65;35.15;;;;;;;0.70;83.36;100010.20;1656348;84;21779;-77
2020/12/11 10:34:19;;;;;;;79.65;38.40;;;;;;;0.76;83.41;100000.11;1666120;84;23752;-77
2020/12/11 10:36:45;;;;;;;76.25;36.55;;;;;;;0.80;83.30;100000.59;1667842;84;21105;-77
2020/12/11 10:39:12;;;;;;;80.30;38.23;;;;;;;0.82;83.20;99999.34;1660854;84;21187;-77
2020/12/11 10:41:38;;;;;;;79.05;36.25;;;;;;;0.85;83.25;99996.84;1659605;84;21142;-77
2020/12/11 10:44:05;;;;;;;82.00;39.40;;;;;;;0.88;83.26;99996.88;1667763;84;21456;-79
2020/12/11 10:46:32;;;;;;;80.62;38.48;;;;;;;0.91;83.29;99990.55;1666350;84;21225;-79
2020/12/11 10:48:58;;;;;;;78.15;35.58;;;;;;;0.94;83.29;99982.55;1688258;83;21224;-77
2020/12/11 10:51:24;;;;;;;80.57;38.55;;;;;;;0.99;83.35;99975.81;1691556;83;21211;-78
2020/12/11 10:53:50;;;;;;;89.90;40.73;;;;;;;1.07;83.33;99975.02;1694998;83;21231;-78
2020/12/11 10:56:19;;;;;;;81.92;36.25;;;;;;;1.09;83.33;99975.48;1695384;83;21235;-78
2020/12/11 10:58:46;;;;;;;87.80;39.78;;;;;;;1.14;83.35;99971.72;1692663;83;22106;-77
2020/12/11 11:01:12;;;;;;;77.10;37.30;;;;;;;1.19;83.34;99972.20;1695325;83;21209;-77
2020/12/11 11:03:39;;;;;;;82.33;37.15;;;;;;;1.24;83.31;99963.34;1698986;82;21634;-76
2020/12/11 11:11:34;;;;;;;91.17;41.35;;;;;;;1.35;83.21;99968.14;1692157;83;21240;-77
2020/12/11 11:30:00;;;;;;;93.90;41.08;;;;;;;1.47;83.07;99943.22;1696586;83;21164;-78
2020/12/11 11:32:27;;;;;;;94.52;42.55;;;;;;;1.45;83.11;99944.47;1693988;83;21102;-78
2020/12/11 11:34:53;;;;;;;;;;;;;;;1.48;83.12;99946.20;1682271;83;21000;-77
2020/12/11 11:37:21;;;;;;;90.07;40.43;;;;;;;1.47;83.07;99944.07;1680105;83;20627;-77
2020/12/11 11:39:48;;;;;;;90.67;40.03;;;;;;;1.46;83.07;99941.09;1683533;83;21151;-76
2020/12/11 11:42:15;;;;;;;90.90;42.30;;;;;;;1.49;83.15;99938.98;1691422;83;21457;-77
2020/12/11 11:47:16;;;;;;;99.40;42.13;;;;;;;1.48;83.07;99938.55;1681403;83;21494;-76
2020/12/11 11:50:05;;;;;;;90.50;41.45;;;;;;;1.49;83.10;99936.44;1649431;84;21155;-77
2020/12/11 11:55:04;;;;;;;91.43;42.57;;;;;;;1.58;83.17;99920.80;1826234;76;22710;-76
2020/12/11 11:57:30;;;;;;;95.67;42.67;;;;;;;1.59;83.13;99930.56;1814587;77;21171;-76
2020/12/11 11:59:56;;;;;;;95.62;43.73;;;;;;;1.61;83.14;99925.06;1785946;77;21204;-77
2020/12/11 12:02:22;;;;;;;86.87;40.52;;;;;;;1.62;83.08;99917.85;1787901;77;21580;-76
2020/12/11 12:04:48;;;;;;;94.47;43.17;;;;;;;1.60;83.04;99915.29;1802334;77;21079;-76
2020/12/11 12:07:15;;;;;;;104.45;45.90;;;;;;;1.54;83.20;99906.77;1805696;77;21182;-76